Time;durP1;ratioP1;P1;durP2;ratioP2;P2;SDS_P1;SDS_P2;PMS_P1;PMS_P2;Temp;Humidity;BMP_temperature;BMP_pressure;BME280_temperature;BME280_humidity;BME280_pressure;Samples;Min_cycle;Max_cycle;Signal;HPM_P1;HPM_P2
2022/08/23 00:02:08;;;;;;;1.60;1.50;;;;;;;25.26;63.29;97443.75;5054611;28;20224;-31
2022/08/23 00:04:49;;;;;;;1.80;1.70;;;;;;;25.28;63.38;97443.78;5060291;28;20232;-32
2022/08/23 00:07:33;;;;;;;1.70;1.60;;;;;;;25.27;63.00;97440.31;5058764;28;20577;-31
2022/08/23 00:10:04;;;;;;;1.47;1.37;;;;;;;25.23;62.88;97435.13;5057754;28;20247;-31
2022/08/23 00:12:31;;;;;;;1.70;1.60;;;;;;;25.27;63.47;97447.16;5054481;28;20829;-31
2022/08/23 00:14:58;;;;;;;1.70;1.60;;;;;;;25.24;62.96;97445.44;5059536;28;20261;-32
2022/08/23 00:17:25;;;;;;;1.60;1.50;;;;;;;25.28;63.22;97451.50;5056089;28;20232;-32
2022/08/23 00:20:10;;;;;;;1.57;1.47;;;;;;;25.27;63.06;97442.03;5066400;28;20304;-31
2022/08/23 00:22:37;;;;;;;1.70;1.60;;;;;;;25.21;63.28;97427.38;5058557;28;20318;-31
2022/08/23 00:25:08;;;;;;;2.83;1.87;;;;;;;25.25;63.41;97434.28;5054748;28;20264;-31
2022/08/23 00:27:34;;;;;;;1.67;1.57;;;;;;;25.22;63.29;97426.53;5064351;28;20759;-32
2022/08/23 00:30:01;;;;;;;1.60;1.50;;;;;;;25.25;63.47;97429.16;5056762;28;20235;-31
2022/08/23 00:32:30;;;;;;;1.70;1.60;;;;;;;25.26;63.04;97432.59;5063360;28;20279;-31
2022/08/23 00:34:58;;;;;;;1.77;1.67;;;;;;;25.25;63.28;97438.59;5066585;28;20250;-31
2022/08/23 00:37:25;;;;;;;1.60;1.50;;;;;;;25.26;63.38;97442.88;5055183;28;20236;-31
2022/08/23 00:39:51;;;;;;;1.50;1.40;;;;;;;25.09;63.34;97410.09;5057140;28;20238;-31
2022/08/23 00:48:42;;;;;;;1.70;1.60;;;;;;;25.17;63.17;97423.06;5051536;28;20282;-31
2022/08/23 00:51:22;;;;;;;1.73;1.63;;;;;;;25.26;62.93;97438.63;5053546;28;20287;-31
2022/08/23 00:53:51;;;;;;;1.67;1.57;;;;;;;25.18;63.46;97417.06;5051027;28;20228;-31
2022/08/23 00:56:19;;;;;;;1.70;1.60;;;;;;;25.17;63.14;97418.75;5048194;28;20279;-31
2022/08/23 00:58:45;;;;;;;1.90;1.80;;;;;;;25.25;63.65;97429.16;5051343;28;20561;-31
2022/08/23 01:01:13;;;;;;;1.60;1.50;;;;;;;25.24;63.34;97437.72;5064623;28;20231;-31
2022/08/23 01:03:42;;;;;;;1.93;1.47;;;;;;;25.26;63.00;97432.59;5060355;28;20242;-32
2022/08/23 01:06:18;;;;;;;1.93;1.67;;;;;;;25.24;63.56;97437.72;5048525;28;20293;-31
2022/08/23 01:08:50;;;;;;;1.70;1.60;;;;;;;25.26;63.48;97442.88;5058235;28;20240;-31
2022/08/23 01:11:22;;;;;;;1.70;1.60;;;;;;;25.24;63.25;97445.44;5049003;28;20287;-31
2022/08/23 01:13:56;;;;;;;1.63;1.53;;;;;;;25.19;63.42;97441.94;5062125;28;20311;-31
2022/08/23 01:16:35;;;;;;;1.80;1.70;;;;;;;25.15;63.42;97435.03;5050523;28;20238;-31
2022/08/23 01:19:02;;;;;;;1.67;1.57;;;;;;;25.25;63.36;97449.72;5053399;28;20232;-31
2022/08/23 01:21:32;;;;;;;1.60;1.50;;;;;;;25.25;63.75;97451.44;5045939;28;20232;-31
2022/08/23 01:24:02;;;;;;;1.60;1.50;;;;;;;25.25;63.57;97443.75;5044333;28;20248;-31
2022/08/23 01:26:33;;;;;;;2.70;1.67;;;;;;;25.13;63.43;97424.72;5047464;28;20244;-31
2022/08/23 01:29:01;;;;;;;1.60;1.50;;;;;;;25.24;63.20;97448.00;5059995;28;20235;-31
2022/08/23 01:31:28;;;;;;;1.40;1.30;;;;;;;25.24;63.49;97436.84;5067158;28;20228;-31
2022/08/23 01:34:01;;;;;;;1.97;1.60;;;;;;;25.22;63.21;97436.81;5059064;28;20252;-31
2022/08/23 01:36:27;;;;;;;1.70;1.60;;;;;;;25.25;63.24;97444.56;5058674;28;20287;-31
2022/08/23 01:38:54;;;;;;;1.47;1.37;;;;;;;25.24;63.55;97445.44;5059937;28;20239;-31
2022/08/23 01:41:21;;;;;;;1.50;1.40;;;;;;;24.60;63.51;97339.97;5062024;28;20233;-31
2022/08/23 01:43:47;;;;;;;1.70;1.60;;;;;;;25.26;63.40;97453.16;5058795;28;20330;-31
2022/08/23 01:46:16;;;;;;;1.70;1.60;;;;;;;25.24;63.13;97444.56;5062461;28;20267;-31
2022/08/23 01:48:45;;;;;;;1.63;1.53;;;;;;;25.24;63.16;97440.28;5066113;28;20208;-31
2022/08/23 01:51:13;;;;;;;1.60;1.50;;;;;;;25.24;63.58;97448.00;5061900;28;20506;-31
2022/08/23 02:42:52;;;;;;;1.70;1.60;;;;;;;25.21;63.52;97444.53;5066828;28;20214;-32
2022/08/23 02:45:20;;;;;;;1.70;1.60;;;;;;;25.21;63.60;97444.53;5062857;28;20670;-32
2022/08/23 02:47:46;;;;;;;2.03;1.70;;;;;;;25.20;63.88;97446.25;5071341;28;20291;-31
2022/08/23 02:50:13;;;;;;;1.50;1.40;;;;;;;25.21;63.63;97452.22;5069184;28;20695;-31
2022/08/23 02:52:40;;;;;;;1.60;1.50;;;;;;;25.21;63.83;97449.66;5067334;28;20212;-31
2022/08/23 02:55:07;;;;;;;1.50;1.40;;;;;;;25.21;63.78;97452.22;5066217;28;20275;-31
2022/08/23 02:57:33;;;;;;;1.67;1.57;;;;;;;25.21;63.64;97453.09;5071105;28;20290;-31
2022/08/23 03:00:00;;;;;;;1.50;1.40;;;;;;;25.17;63.51;97440.19;5059959;28;20243;-31
2022/08/23 03:02:28;;;;;;;1.67;1.57;;;;;;;25.22;63.55;97459.13;5070186;28;20228;-31
2022/08/23 03:04:55;;;;;;;1.67;1.57;;;;;;;25.21;63.88;97460.81;5069673;28;20790;-31
2022/08/23 03:07:21;;;;;;;1.60;1.50;;;;;;;25.22;64.03;97462.53;5066954;28;20289;-31
2022/08/23 03:09:48;;;;;;;1.53;1.43;;;;;;;25.19;63.83;97454.78;5068298;28;20208;-31
2022/08/23 03:12:15;;;;;;;1.60;1.50;;;;;;;25.22;63.93;97461.69;5063942;28;20351;-31
2022/08/23 03:14:41;;;;;;;1.70;1.60;;;;;;;25.22;63.57;97467.69;5070845;28;20596;-31
2022/08/23 03:17:08;;;;;;;1.50;1.40;;;;;;;25.22;63.74;97470.25;5069773;28;20287;-32
2022/08/23 03:19:34;;;;;;;1.60;1.50;;;;;;;25.23;64.02;97471.13;5070947;28;20586;-31
2022/08/23 03:24:35;;;;;;;1.60;1.50;;;;;;;25.23;64.13;97473.72;5087100;28;20203;-23
2022/08/23 03:27:02;;;;;;;1.63;1.53;;;;;;;25.23;64.09;97476.28;5079664;28;20223;-23
2022/08/23 03:29:30;;;;;;;1.70;1.60;;;;;;;25.23;64.13;97476.28;5088683;28;20341;-24
2022/08/23 03:31:58;;;;;;;1.60;1.50;;;;;;;25.22;64.00;97480.53;5083894;28;20665;-23
2022/08/23 03:34:24;;;;;;;1.50;1.40;;;;;;;25.20;64.05;97469.41;5074381;28;20298;-23
2022/08/23 03:36:51;;;;;;;1.70;1.60;;;;;;;25.22;64.16;97475.41;5072250;28;20291;-23
2022/08/23 03:39:17;;;;;;;1.50;1.40;;;;;;;25.22;63.75;97477.97;5068710;28;20234;-23
2022/08/23 03:41:44;;;;;;;1.80;1.70;;;;;;;25.17;64.12;97473.63;5067492;28;20214;-22
2022/08/23 03:44:10;;;;;;;1.90;1.80;;;;;;;25.24;64.05;97480.56;5063631;28;20270;-23
2022/08/23 03:46:37;;;;;;;1.43;1.33;;;;;;;25.23;64.19;97486.56;5063858;28;20265;-24
2022/08/23 03:49:04;;;;;;;1.60;1.50;;;;;;;25.23;64.13;97481.44;5072444;28;20690;-23
2022/08/23 03:51:30;;;;;;;1.60;1.50;;;;;;;25.21;64.02;97476.25;5068915;28;20204;-23
2022/08/23 03:53:57;;;;;;;1.67;1.57;;;;;;;25.23;63.85;97491.72;5067761;28;20310;-22
2022/08/23 03:56:27;;;;;;;1.53;1.43;;;;;;;25.23;63.87;97481.44;5067795;28;20629;-23
2022/08/23 03:58:54;;;;;;;1.40;1.30;;;;;;;25.22;64.01;97490.84;5067254;28;20236;-23
2022/08/23 04:01:20;;;;;;;1.80;1.70;;;;;;;25.22;64.01;97479.72;5067329;28;20311;-23
2022/08/23 04:03:54;;;;;;;1.60;1.50;;;;;;;25.23;64.21;97486.56;5069148;28;20710;-23
2022/08/23 04:06:20;;;;;;;1.70;1.60;;;;;;;25.22;64.07;97498.56;5069394;28;20656;-23
2022/08/23 04:08:47;;;;;;;1.70;1.60;;;;;;;25.22;63.90;97495.16;5067338;28;20767;-23
2022/08/23 04:11:14;;;;;;;1.50;1.40;;;;;;;25.23;64.23;97499.44;5065946;28;20231;-22
2022/08/23 04:13:41;;;;;;;1.70;1.60;;;;;;;25.21;64.27;97494.25;5071369;28;20778;-23
2022/08/23 04:16:07;;;;;;;1.60;1.50;;;;;;;25.22;63.91;97500.28;5068384;28;20254;-24
2022/08/23 04:18:35;;;;;;;1.57;1.47;;;;;;;25.22;63.68;97490.84;5071716;28;20242;-23
2022/08/23 04:21:06;;;;;;;1.40;1.27;;;;;;;25.22;64.31;97501.13;5067275;28;20401;-23
2022/08/23 04:23:32;;;;;;;1.70;1.60;;;;;;;25.22;63.94;97503.69;5069357;28;20263;-23
2022/08/23 04:25:59;;;;;;;1.60;1.50;;;;;;;25.22;63.87;97516.56;5069777;28;20224;-22
2022/08/23 04:28:27;;;;;;;1.70;1.60;;;;;;;25.23;63.85;97509.72;5068930;28;20204;-22
2022/08/23 04:30:54;;;;;;;1.40;1.30;;;;;;;25.22;64.30;97513.16;5066651;28;20291;-22
2022/08/23 04:33:21;;;;;;;1.60;1.50;;;;;;;25.22;63.86;97508.00;5047950;28;20278;-23
2022/08/23 04:35:47;;;;;;;1.40;1.30;;;;;;;25.22;64.07;97506.28;5066421;28;20279;-24
2022/08/23 04:38:14;;;;;;;1.63;1.53;;;;;;;25.22;63.89;97506.28;5066938;28;20251;-23
2022/08/23 04:43:37;;;;;;;3.50;2.63;;;;;;;25.23;61.62;97509.72;5060946;28;20743;-23
2022/08/23 04:46:04;;;;;;;2.90;2.60;;;;;;;25.21;58.49;97511.41;5060660;28;20307;-23
2022/08/23 04:48:32;;;;;;;4.47;3.33;;;;;;;25.18;56.38;97509.66;5068389;28;20290;-24
2022/08/23 04:50:58;;;;;;;3.70;3.23;;;;;;;25.17;55.90;97507.94;5065269;28;20208;-23
2022/08/23 04:53:25;;;;;;;4.63;3.43;;;;;;;25.16;54.92;97510.50;5066048;28;20248;-22
2022/08/23 04:55:51;;;;;;;4.93;3.10;;;;;;;25.14;54.94;97511.31;5065465;28;20287;-23
2022/08/23 04:58:18;;;;;;;4.47;3.10;;;;;;;25.12;54.36;97509.56;5065996;28;20766;-23
2022/08/23 05:00:48;;;;;;;4.17;3.33;;;;;;;25.09;54.11;97512.09;5065623;28;20750;-23
2022/08/23 05:03:17;;;;;;;3.63;3.20;;;;;;;25.06;53.89;97514.63;5065433;28;20223;-22
2022/08/23 05:05:43;;;;;;;10.60;3.40;;;;;;;25.04;53.65;97519.72;5064844;28;20787;-23
2022/08/23 05:08:10;;;;;;;3.50;3.20;;;;;;;25.01;53.47;97527.41;5065670;28;20236;-23
2022/08/23 05:10:37;;;;;;;8.13;3.70;;;;;;;24.99;54.03;97523.94;5067835;28;20262;-23
2022/08/23 05:13:03;;;;;;;5.37;3.10;;;;;;;24.97;54.20;97523.06;5068621;28;20230;-22
2022/08/23 05:15:30;;;;;;;4.27;3.60;;;;;;;24.95;54.71;97522.16;5066603;28;20753;-23
2022/08/23 05:17:56;;;;;;;7.20;3.37;;;;;;;24.93;55.05;97518.69;5069558;28;20286;-23
2022/08/23 05:20:23;;;;;;;5.30;3.50;;;;;;;24.90;55.32;97523.78;5064337;28;20254;-22
2022/08/23 05:22:50;;;;;;;3.60;3.30;;;;;;;24.84;55.79;97515.97;5067418;28;20271;-23
2022/08/23 05:25:16;;;;;;;4.57;3.80;;;;;;;24.91;56.44;97529.81;5069001;28;20314;-23
2022/08/23 05:27:43;;;;;;;7.73;3.97;;;;;;;24.90;56.13;97541.78;5069107;28;20287;-24
2022/08/23 05:30:10;;;;;;;6.20;3.80;;;;;;;24.90;56.23;97543.50;5069509;28;20653;-23
2022/08/23 05:32:41;;;;;;;4.57;3.53;;;;;;;24.90;56.01;97533.22;5055388;28;20311;-23
2022/08/23 05:35:07;;;;;;;4.07;3.67;;;;;;;24.90;56.12;97541.78;5061387;28;20311;-23
2022/08/23 05:37:34;;;;;;;5.83;3.50;;;;;;;24.90;55.88;97544.34;5067160;28;20319;-23
2022/08/23 05:40:01;;;;;;;3.97;3.57;;;;;;;24.84;55.78;97530.56;5063840;28;20291;-24
2022/08/23 05:42:27;;;;;;;3.93;3.50;;;;;;;24.92;55.58;97544.38;5061725;28;20220;-22
2022/08/23 05:44:54;;;;;;;3.47;3.13;;;;;;;24.91;55.42;97545.22;5064674;28;20263;-23
2022/08/23 05:47:21;;;;;;;4.80;3.27;;;;;;;24.92;55.09;97549.53;5061680;28;20587;-23
2022/08/23 05:49:50;;;;;;;3.77;3.33;;;;;;;24.92;55.25;97552.97;5067722;28;20671;-23
2022/08/23 05:52:17;;;;;;;5.73;3.17;;;;;;;24.92;55.13;97558.13;5067402;28;20690;-23
2022/08/23 05:54:43;;;;;;;7.33;3.40;;;;;;;24.91;55.61;97558.97;5067847;28;20265;-23
2022/08/23 05:57:10;;;;;;;8.23;3.80;;;;;;;24.92;55.99;97562.38;5068184;28;20287;-24
2022/08/23 05:59:37;;;;;;;6.27;3.60;;;;;;;24.92;56.40;97560.69;5068697;28;20642;-23
2022/08/23 06:02:03;;;;;;;3.27;2.97;;;;;;;24.92;57.00;97559.81;5065206;28;20288;-24
2022/08/23 06:04:30;;;;;;;5.63;3.50;;;;;;;24.86;56.74;97545.16;5068395;28;20204;-23
2022/08/23 06:06:57;;;;;;;3.73;3.30;;;;;;;24.93;57.10;97559.84;5067750;28;20306;-23
2022/08/23 06:09:24;;;;;;;7.97;3.80;;;;;;;24.93;56.31;97559.84;5068958;28;20200;-23
2022/08/23 06:11:51;;;;;;;4.20;3.80;;;;;;;24.93;56.75;97562.41;5068043;28;20236;-23
2022/08/23 06:14:18;;;;;;;5.43;3.90;;;;;;;24.95;56.72;97562.44;5068401;28;20278;-23
2022/08/23 06:16:48;;;;;;;7.60;3.97;;;;;;;24.95;57.10;97565.88;5069214;28;20208;-23
2022/08/23 06:19:21;;;;;;;7.20;3.87;;;;;;;24.95;57.43;97562.44;5063585;28;20585;-22
2022/08/23 06:21:48;;;;;;;3.93;3.40;;;;;;;24.95;57.90;97562.44;5066290;28;20709;-23
2022/08/23 06:24:14;;;;;;;4.63;3.30;;;;;;;24.95;57.67;97567.56;5066628;28;20640;-22
2022/08/23 06:26:42;;;;;;;5.87;3.17;;;;;;;24.92;57.62;97562.38;5067349;28;20728;-23
2022/08/23 06:29:10;;;;;;;4.87;3.60;;;;;;;24.97;57.55;97563.31;5074414;28;20279;-23
2022/08/23 06:31:46;;;;;;;6.37;3.60;;;;;;;24.97;58.10;97571.91;5065947;28;20287;-21
2022/08/23 06:34:28;;;;;;;3.67;3.00;;;;;;;24.92;58.15;97562.38;5060515;28;20313;-24
2022/08/23 06:36:56;;;;;;;5.00;3.30;;;;;;;25.00;58.51;97581.38;5062073;28;20235;-26
2022/08/23 06:39:25;;;;;;;5.07;3.37;;;;;;;25.01;58.38;97572.81;5066500;28;20243;-23
2022/08/23 06:41:52;;;;;;;3.50;2.90;;;;;;;24.98;58.36;97565.94;5064617;28;20231;-22
2022/08/23 06:44:18;;;;;;;6.23;3.50;;;;;;;24.96;58.51;97562.44;5067390;28;20298;-22
2022/08/23 06:46:46;;;;;;;6.00;3.40;;;;;;;25.01;58.70;97573.69;5065015;28;20726;-23
2022/08/23 06:49:13;;;;;;;4.67;3.10;;;;;;;23.55;58.85;97320.19;5067412;28;20204;-24
2022/08/23 06:51:45;;;;;;;3.30;3.00;;;;;;;25.03;59.33;97579.72;5067770;28;20666;-22
2022/08/23 06:54:13;;;;;;;4.73;2.87;;;;;;;24.99;59.00;97566.81;5065980;28;20262;-23
2022/08/23 06:56:39;;;;;;;3.80;3.40;;;;;;;25.04;59.27;97581.44;5067615;28;20284;-23
2022/08/23 06:59:06;;;;;;;3.77;2.97;;;;;;;25.04;59.52;97578.88;5066851;28;20757;-23
2022/08/23 07:01:41;;;;;;;5.23;2.80;;;;;;;25.06;59.73;97581.47;5063615;28;20201;-24
2022/08/23 07:04:12;;;;;;;4.33;3.10;;;;;;;25.06;59.40;97579.78;5047758;28;20224;-23
2022/08/23 07:06:39;;;;;;;4.33;3.27;;;;;;;25.06;59.97;97587.50;5067051;28;20219;-23
2022/08/23 07:09:06;;;;;;;3.50;2.83;;;;;;;25.08;59.96;97587.53;5064737;28;20743;-23
2022/08/23 07:11:32;;;;;;;3.00;2.50;;;;;;;25.08;60.26;97592.66;5067331;28;20232;-23
2022/08/23 07:14:00;;;;;;;3.07;2.77;;;;;;;25.09;59.98;97591.81;5067393;28;20562;-23
2022/08/23 07:16:56;;;;;;;3.33;3.00;;;;;;;25.09;60.07;97590.13;5066758;28;20283;-23
2022/08/23 07:19:28;;;;;;;4.80;3.03;;;;;;;25.10;60.04;97599.56;5045480;28;20247;-24
2022/08/23 07:21:56;;;;;;;2.80;2.60;;;;;;;25.08;59.96;97598.66;5060715;28;20247;-24
2022/08/23 07:24:23;;;;;;;3.13;2.83;;;;;;;25.13;59.91;97602.19;5048874;28;20315;-23
2022/08/23 07:26:56;;;;;;;5.40;3.20;;;;;;;25.14;59.22;97608.19;5061542;28;20834;-23
2022/08/23 07:29:22;;;;;;;4.30;3.10;;;;;;;25.14;58.93;97605.63;5066666;28;20286;-24
2022/08/23 07:31:52;;;;;;;5.27;3.60;;;;;;;25.16;59.03;97608.22;5066051;28;20262;-23
2022/08/23 07:34:19;;;;;;;5.77;3.30;;;;;;;25.14;59.57;97606.47;5065623;28;20311;-22
2022/08/23 07:36:47;;;;;;;4.43;3.33;;;;;;;25.08;59.75;97596.09;5065422;28;20294;-23
2022/08/23 07:39:13;;;;;;;5.73;3.53;;;;;;;25.16;59.69;97614.22;5066182;28;20239;-24
2022/08/23 07:41:40;;;;;;;3.53;3.13;;;;;;;25.15;59.22;97604.78;5049262;28;20285;-23
2022/08/23 07:44:08;;;;;;;3.30;2.90;;;;;;;25.09;59.30;97600.41;5061232;28;20327;-23
2022/08/23 07:46:36;;;;;;;3.60;3.10;;;;;;;25.14;59.43;97611.63;5066061;28;20303;-23
2022/08/23 07:49:03;;;;;;;4.60;3.10;;;;;;;25.09;59.18;97608.13;5066094;28;20216;-23
2022/08/23 07:51:30;;;;;;;3.40;3.10;;;;;;;25.16;59.26;97618.50;5048631;28;20325;-23
2022/08/23 07:53:56;;;;;;;3.57;3.13;;;;;;;25.17;59.27;97617.66;5066223;28;20351;-23
2022/08/23 07:56:23;;;;;;;6.40;3.10;;;;;;;25.17;59.10;97623.69;5066029;28;20283;-23
2022/08/23 07:58:50;;;;;;;4.97;3.37;;;;;;;25.17;59.23;97615.97;5065927;28;20288;-22
2022/08/23 08:01:19;;;;;;;3.63;3.30;;;;;;;25.17;59.15;97615.97;5066611;28;20243;-23
2022/08/23 08:03:47;;;;;;;3.67;3.07;;;;;;;25.09;58.70;97604.69;5065063;28;20251;-23
2022/08/23 08:06:17;;;;;;;5.17;3.13;;;;;;;25.19;58.43;97624.56;5065890;28;20224;-23
2022/08/23 08:08:44;;;;;;;4.47;3.17;;;;;;;25.19;58.55;97619.41;5065849;28;20285;-23
2022/08/23 08:11:11;;;;;;;4.77;3.17;;;;;;;25.08;58.84;97601.22;5065691;28;20242;-23
2022/08/23 08:13:41;;;;;;;3.73;3.23;;;;;;;25.20;59.04;97620.28;5065860;28;20478;-23
2022/08/23 08:16:08;;;;;;;3.63;3.17;;;;;;;25.20;58.60;97615.13;5048436;28;20327;-22
2022/08/23 08:18:35;;;;;;;3.20;2.90;;;;;;;25.21;59.05;97619.44;5059305;28;20517;-23
2022/08/23 08:21:05;;;;;;;3.27;2.97;;;;;;;25.22;59.16;97631.47;5046991;28;20231;-23
2022/08/23 08:23:33;;;;;;;3.30;3.00;;;;;;;25.21;58.74;97622.88;5058535;28;20278;-23
2022/08/23 08:26:01;;;;;;;4.60;3.00;;;;;;;25.21;58.75;97628.03;5063287;28;20215;-23
2022/08/23 08:28:27;;;;;;;3.50;3.10;;;;;;;25.22;59.11;97626.31;5065456;28;20291;-23
2022/08/23 08:30:54;;;;;;;3.73;3.03;;;;;;;25.21;58.73;97632.28;5062155;28;20206;-23
2022/08/23 08:33:21;;;;;;;3.83;3.23;;;;;;;25.21;59.09;97624.56;5065763;28;20224;-23
2022/08/23 08:35:49;;;;;;;3.50;3.20;;;;;;;25.21;58.97;97629.72;5064837;28;20207;-23
2022/08/23 08:38:28;;;;;;;4.43;3.03;;;;;;;25.20;58.54;97626.31;5065116;28;20231;-23
2022/08/23 08:41:14;;;;;;;4.23;2.77;;;;;;;25.20;58.93;97622.84;5065504;28;20211;-23
2022/08/23 08:43:56;;;;;;;4.80;3.13;;;;;;;25.20;59.00;97625.44;5030644;28;20295;-23
2022/08/23 08:46:37;;;;;;;3.27;2.97;;;;;;;25.15;58.98;97622.78;5047500;28;20247;-23
2022/08/23 08:49:04;;;;;;;3.40;3.00;;;;;;;25.19;58.92;97632.28;5031564;28;20224;-22
2022/08/23 08:51:46;;;;;;;3.27;2.73;;;;;;;25.19;58.93;97629.69;5055760;28;20228;-24
2022/08/23 08:54:15;;;;;;;3.17;2.87;;;;;;;24.96;59.19;97592.47;5064361;28;20519;-22
2022/08/23 08:56:41;;;;;;;3.17;2.83;;;;;;;25.18;58.91;97627.97;5046597;28;20637;-23
2022/08/23 08:59:23;;;;;;;3.60;2.87;;;;;;;25.17;59.14;97632.25;5029868;28;20200;-23
2022/08/23 09:01:50;;;;;;;2.93;2.67;;;;;;;25.13;59.04;97614.16;5058557;28;20658;-23
2022/08/23 09:04:17;;;;;;;3.40;2.70;;;;;;;25.18;59.18;97625.41;5046856;28;20255;-23
2022/08/23 09:06:46;;;;;;;3.50;3.20;;;;;;;25.17;59.38;97627.09;5061156;28;20228;-22
2022/08/23 09:09:47;;;;;;;3.07;2.77;;;;;;;25.17;59.27;97627.09;5064368;28;20287;-24
2022/08/23 09:12:19;;;;;;;2.90;2.60;;;;;;;25.18;59.39;97625.41;5063487;28;20728;-22
2022/08/23 09:15:11;;;;;;;2.80;2.60;;;;;;;25.19;59.24;97623.69;5046092;28;20761;-23
2022/08/23 09:17:54;;;;;;;3.47;3.03;;;;;;;25.18;59.56;97622.81;5043289;28;20239;-24
2022/08/23 09:20:28;;;;;;;3.83;3.00;;;;;;;25.00;59.58;97586.53;5060997;28;20249;-23
2022/08/23 09:23:14;;;;;;;3.00;2.70;;;;;;;25.19;59.80;97626.28;5049995;22;20235;-21
2022/08/23 09:25:40;;;;;;;3.00;2.70;;;;;;;25.19;59.41;97623.69;5079455;28;20282;-26
2022/08/23 09:28:07;;;;;;;3.73;2.83;;;;;;;25.19;59.64;97623.69;5079909;28;20647;-21
2022/08/23 09:30:51;;;;;;;3.27;2.90;;;;;;;25.17;59.61;97622.81;5079688;28;20202;-21
2022/08/23 09:33:20;;;;;;;3.00;2.70;;;;;;;25.18;59.66;97615.13;5077423;28;20653;-21
2022/08/23 09:36:13;;;;;;;2.87;2.53;;;;;;;25.17;59.86;97614.22;5067352;28;20309;-22
2022/08/23 09:39:00;;;;;;;3.10;2.80;;;;;;;25.17;59.44;97615.97;5080214;28;20235;-20
2022/08/23 09:41:39;;;;;;;3.10;2.80;;;;;;;25.17;59.72;97613.38;5057847;28;20211;-22
2022/08/23 09:44:08;;;;;;;2.97;2.67;;;;;;;25.17;59.57;97608.25;5064930;28;20725;-21
2022/08/23 09:46:37;;;;;;;3.30;3.00;;;;;;;25.16;59.88;97606.50;5066594;28;20256;-21
2022/08/23 09:49:33;;;;;;;3.20;2.63;;;;;;;25.17;59.97;97607.38;5067740;28;20274;-21
2022/08/23 09:52:31;;;;;;;2.93;2.63;;;;;;;25.17;59.55;97600.53;5051350;28;20219;-21
2022/08/23 09:55:01;;;;;;;3.20;2.70;;;;;;;25.16;59.63;97609.06;5065477;28;20299;-28
2022/08/23 09:57:29;;;;;;;2.83;2.60;;;;;;;25.17;59.51;97598.81;5071270;28;20224;-21
2022/08/23 10:00:17;;;;;;;3.23;2.83;;;;;;;25.17;59.98;97603.09;5067611;28;20572;-22
2022/08/23 10:02:43;;;;;;;2.67;2.47;;;;;;;24.96;59.36;97561.59;5066260;28;20240;-21
2022/08/23 10:05:28;;;;;;;2.60;2.40;;;;;;;25.17;59.87;97594.50;5058818;28;20549;-21
2022/08/23 10:07:59;;;;;;;2.87;2.67;;;;;;;25.16;59.59;97596.22;5070106;28;20316;-27
2022/08/23 10:10:36;;;;;;;2.80;2.60;;;;;;;25.17;59.54;97597.97;5073113;28;20263;-21
2022/08/23 10:13:03;;;;;;;2.90;2.60;;;;;;;25.17;59.66;97587.66;5083874;28;20310;-22
2022/08/23 10:15:39;;;;;;;2.50;2.30;;;;;;;25.17;59.89;97597.97;5071976;28;20200;-22
2022/08/23 10:18:32;;;;;;;3.53;2.67;;;;;;;25.17;59.91;97578.22;5062634;28;20200;-21
2022/08/23 10:21:17;;;;;;;3.17;2.70;;;;;;;25.17;59.89;97580.78;5076202;28;20294;-21
2022/08/23 10:23:49;;;;;;;2.70;2.50;;;;;;;25.17;59.81;97579.94;5046019;28;20234;-21
2022/08/23 10:26:38;;;;;;;3.20;2.70;;;;;;;24.91;59.48;97535.81;5069612;28;20228;-21
2022/08/23 10:32:20;;;;;;;2.83;2.63;;;;;;;25.17;59.74;97579.94;5058399;28;20315;-22
2022/08/23 10:34:50;;;;;;;2.97;2.67;;;;;;;25.17;59.58;97577.38;5071809;28;20675;-21
2022/08/23 10:37:38;;;;;;;2.83;2.60;;;;;;;25.17;59.33;97577.38;5067209;28;20665;-21
2022/08/23 10:40:24;;;;;;;2.67;2.47;;;;;;;25.16;59.63;97569.63;5069030;28;20715;-21
2022/08/23 10:42:52;;;;;;;2.73;2.53;;;;;;;25.16;59.49;97575.63;5069980;28;20276;-21
2022/08/23 10:45:21;;;;;;;3.00;2.70;;;;;;;25.17;59.30;97571.38;5068843;28;20235;-21
2022/08/23 10:48:04;;;;;;;2.93;2.63;;;;;;;25.16;59.80;97562.78;5070101;28;20655;-22
2022/08/23 10:50:42;;;;;;;2.67;2.47;;;;;;;25.16;59.46;97562.78;5073382;28;20625;-21
2022/08/23 10:53:21;;;;;;;2.70;2.50;;;;;;;25.16;59.34;97567.91;5055108;28;20742;-21
2022/08/23 10:56:02;;;;;;;2.20;2.00;;;;;;;24.82;59.26;97509.09;5068005;28;20265;-20
2022/08/23 10:58:39;;;;;;;2.60;2.40;;;;;;;25.16;59.63;97557.63;5064629;28;20201;-21
2022/08/23 11:01:06;;;;;;;2.73;2.53;;;;;;;25.16;59.90;97555.06;5043061;28;20238;-22
2022/08/23 11:03:46;;;;;;;2.40;2.20;;;;;;;25.07;59.65;97547.19;5066143;28;20219;-21
2022/08/23 11:06:36;;;;;;;2.50;2.30;;;;;;;25.16;59.90;97552.47;5061642;28;20287;-22
2022/08/23 11:09:03;;;;;;;2.20;2.10;;;;;;;25.17;59.77;97561.06;5062876;28;20291;-22
2022/08/23 11:11:48;;;;;;;2.37;2.23;;;;;;;25.17;59.88;97554.22;5068381;28;20264;-20
2022/08/23 11:14:41;;;;;;;2.40;2.20;;;;;;;25.17;59.50;97543.94;5065016;28;20618;-29
2022/08/23 11:17:11;;;;;;;2.20;2.10;;;;;;;25.17;59.79;97539.66;5048591;28;20381;-21
2022/08/23 11:20:08;;;;;;;3.40;2.37;;;;;;;25.16;59.89;97539.63;5063483;28;20753;-22
2022/08/23 11:22:57;;;;;;;2.50;2.30;;;;;;;25.17;59.84;97538.81;5055274;28;20322;-21
2022/08/23 11:25:23;;;;;;;2.43;2.23;;;;;;;25.14;59.52;97533.63;5069598;28;20659;-22
2022/08/23 11:27:50;;;;;;;2.57;2.37;;;;;;;25.17;60.15;97543.06;5072244;28;20314;-21
2022/08/23 11:30:31;;;;;;;5.33;2.57;;;;;;;25.16;59.61;97537.03;5068514;28;20287;-22
2022/08/23 11:33:09;;;;;;;4.30;2.50;;;;;;;25.17;59.75;97546.50;5069650;28;20227;-21
2022/08/23 11:35:48;;;;;;;2.83;2.57;;;;;;;25.17;59.49;97540.50;5070675;28;20614;-21
2022/08/23 11:38:16;;;;;;;5.43;2.53;;;;;;;25.18;59.97;97540.53;5073666;28;20278;-22
2022/08/23 11:40:51;;;;;;;6.17;2.70;;;;;;;25.17;59.77;97536.22;5067720;28;20200;-21
2022/08/23 11:43:35;;;;;;;4.37;2.57;;;;;;;25.18;59.70;97540.53;5068714;28;20248;-22
2022/08/23 11:46:35;;;;;;;5.87;2.97;;;;;;;25.19;59.97;97539.66;5054355;28;20526;-21
2022/08/23 11:49:29;;;;;;;5.30;2.87;;;;;;;25.17;60.04;97542.22;5076083;28;20202;-21
2022/08/23 11:52:35;;;;;;;9.83;2.93;;;;;;;25.18;59.75;97537.94;5067216;28;20357;-20
2022/08/23 11:55:23;;;;;;;3.40;2.67;;;;;;;25.19;59.87;97541.41;5019086;28;20289;-21
2022/08/23 11:57:55;;;;;;;6.23;2.70;;;;;;;25.18;60.26;97535.38;5067475;28;20755;-21
2022/08/23 12:00:52;;;;;;;4.77;2.53;;;;;;;25.19;60.22;97536.25;5067732;28;20204;-21
2022/08/23 12:03:32;;;;;;;4.50;3.00;;;;;;;25.17;60.19;97537.06;5076095;28;20221;-22
2022/08/23 12:06:02;;;;;;;4.80;2.70;;;;;;;25.19;59.96;97531.09;5070904;28;20227;-21
2022/08/23 12:08:45;;;;;;;4.20;2.57;;;;;;;25.20;60.13;97535.41;5066291;28;20331;-21
2022/08/23 12:11:12;;;;;;;6.40;2.67;;;;;;;25.20;60.13;97532.81;5070628;28;20291;-21
2022/08/23 12:13:46;;;;;;;2.70;2.50;;;;;;;25.20;60.09;97532.81;5070867;28;20601;-21
2022/08/23 12:16:13;;;;;;;3.37;2.70;;;;;;;25.20;60.11;97530.25;5070751;28;20200;-21
2022/08/23 12:18:46;;;;;;;2.70;2.50;;;;;;;25.20;60.13;97525.09;5070315;28;20204;-20
2022/08/23 12:21:18;;;;;;;5.90;2.53;;;;;;;25.20;59.94;97525.09;5086160;28;20291;-21
2022/08/23 12:23:56;;;;;;;4.17;2.50;;;;;;;25.19;60.18;97528.53;5069644;28;20438;-21
2022/08/23 12:26:57;;;;;;;6.20;2.80;;;;;;;25.19;60.26;97528.53;5067505;28;20912;-21
2022/08/23 12:29:36;;;;;;;4.77;3.00;;;;;;;25.11;60.06;97520.69;5032597;28;20250;-22
2022/08/23 12:32:25;;;;;;;3.87;3.00;;;;;;;25.18;60.26;97532.81;5068179;28;20228;-21
2022/08/23 12:35:12;;;;;;;4.47;3.13;;;;;;;25.19;59.99;97543.97;5060536;28;20200;-22
2022/08/23 12:38:06;;;;;;;4.37;2.90;;;;;;;25.19;60.11;97537.09;5075909;28;20234;-21
2022/08/23 12:40:42;;;;;;;2.90;2.37;;;;;;;25.19;59.93;97531.09;5067757;28;20616;-21
2022/08/23 12:43:18;;;;;;;3.23;2.60;;;;;;;25.19;60.29;97538.81;5058209;28;20734;-32
2022/08/23 12:45:56;;;;;;;4.23;2.80;;;;;;;25.19;60.55;97536.25;5066824;28;20246;-21
2022/08/23 12:48:25;;;;;;;4.57;3.00;;;;;;;25.19;60.59;97533.69;5072589;28;20226;-22
2022/08/23 12:51:10;;;;;;;4.30;2.83;;;;;;;25.18;60.46;97530.22;5066329;28;20677;-23
2022/08/23 12:53:39;;;;;;;3.67;2.60;;;;;;;25.18;60.71;97535.38;5072822;28;20318;-21
2022/08/23 12:56:16;;;;;;;3.83;2.37;;;;;;;25.19;60.38;97528.53;5067542;28;20258;-21
2022/08/23 12:58:57;;;;;;;3.00;2.40;;;;;;;25.09;60.30;97506.94;5071495;28;20227;-21
2022/08/23 13:01:27;;;;;;;3.00;2.63;;;;;;;25.19;60.43;97520.81;5061693;28;20750;-22